createdAt,value
2023-04-08T00:01:04.872Z,17.17
2023-04-08T00:03:33.349Z,17.45
2023-04-08T00:06:03.343Z,13.82
2023-04-08T00:08:31.810Z,13.68
2023-04-08T00:11:00.289Z,12.45
2023-04-08T00:13:28.626Z,10.63
2023-04-08T00:15:58.911Z,10.80
2023-04-08T00:18:27.318Z,10.80
2023-04-08T00:20:57.286Z,10.35
2023-04-08T00:23:25.797Z,11.25
2023-04-08T00:25:54.112Z,9.27
2023-04-08T00:28:22.572Z,9.90
2023-04-08T00:30:51.472Z,9.10
2023-04-08T00:33:21.762Z,7.40
2023-04-08T00:35:51.103Z,8.82
2023-04-08T00:38:19.547Z,7.68
2023-04-08T00:40:47.938Z,7.80
2023-04-08T00:43:16.813Z,7.15
2023-04-08T00:45:45.246Z,7.25
2023-04-08T00:48:13.801Z,6.05
2023-04-08T00:50:44.898Z,6.18
2023-04-08T00:53:13.915Z,5.50
2023-04-08T00:55:42.471Z,5.75
2023-04-08T00:58:11.038Z,6.47
2023-04-08T01:00:47.417Z,6.22
2023-04-08T01:03:26.742Z,6.15
2023-04-08T01:06:05.658Z,5.60
2023-04-08T01:08:39.713Z,5.97
2023-04-08T01:11:13.539Z,5.10
2023-04-08T01:13:45.309Z,4.63
2023-04-08T01:16:17.819Z,4.55
2023-04-08T01:18:47.825Z,5.28
2023-04-08T01:21:19.507Z,5.25
2023-04-08T01:24:00.770Z,3.97
2023-04-08T01:26:31.117Z,4.40
2023-04-08T01:29:03.296Z,4.00
2023-04-08T01:31:32.924Z,4.45
2023-04-08T01:34:02.723Z,5.25
2023-04-08T01:36:33.790Z,5.28
2023-04-08T01:39:05.604Z,4.70
2023-04-08T01:41:37.210Z,5.13
2023-04-08T01:44:06.264Z,4.80
2023-04-08T01:46:35.825Z,4.28
2023-04-08T01:49:05.941Z,4.88
2023-04-08T01:51:36.005Z,3.92
2023-04-08T01:54:05.519Z,4.45
2023-04-08T01:56:39.923Z,3.85
2023-04-08T01:59:13.486Z,3.65
2023-04-08T02:01:45.206Z,3.97
2023-04-08T02:04:14.868Z,2.63
2023-04-08T02:06:43.770Z,2.80
2023-04-08T02:09:12.277Z,3.20
2023-04-08T02:11:42.039Z,3.58
2023-04-08T02:14:10.341Z,3.30
2023-04-08T02:16:46.407Z,2.80
2023-04-08T02:19:27.101Z,3.15
2023-04-08T02:22:01.430Z,2.40
2023-04-08T02:24:31.201Z,1.98
2023-04-08T02:27:01.918Z,1.92
2023-04-08T02:29:33.201Z,2.58
2023-04-08T02:32:05.226Z,3.38
2023-04-08T02:34:36.374Z,2.33
2023-04-08T02:37:04.757Z,2.72
2023-04-08T02:39:33.834Z,3.05
2023-04-08T02:42:03.575Z,2.47
2023-04-08T02:44:31.911Z,2.55
2023-04-08T02:47:00.274Z,2.30
2023-04-08T02:49:28.630Z,2.60
2023-04-08T02:51:56.975Z,2.87
2023-04-08T02:54:25.775Z,2.50
2023-04-08T02:56:54.112Z,2.40
2023-04-08T02:59:23.781Z,2.22
2023-04-08T03:01:52.289Z,2.33
2023-04-08T03:04:20.659Z,2.35
2023-04-08T03:06:48.973Z,2.85
2023-04-08T03:09:17.272Z,2.90
2023-04-08T03:11:45.887Z,2.67
2023-04-08T03:14:14.248Z,1.98
2023-04-08T03:16:43.971Z,2.03
2023-04-08T03:19:12.327Z,2.17
2023-04-08T03:21:40.901Z,1.42
2023-04-08T03:24:09.290Z,1.63
2023-04-08T03:26:37.687Z,1.70
2023-04-08T03:29:06.932Z,1.80
2023-04-08T03:31:35.849Z,1.57
2023-04-08T03:34:05.762Z,1.57
2023-04-08T03:36:34.176Z,2.17
2023-04-08T03:39:03.834Z,2.35
2023-04-08T03:41:32.332Z,2.00
2023-04-08T03:44:00.675Z,1.70
2023-04-08T03:46:29.214Z,1.70
2023-04-08T03:48:57.605Z,1.87
2023-04-08T03:51:27.361Z,1.97
2023-04-08T03:53:55.782Z,2.03
2023-04-08T03:56:25.160Z,1.73
2023-04-08T03:58:53.580Z,1.87
2023-04-08T04:01:21.960Z,1.67
2023-04-08T04:03:50.449Z,1.67
2023-04-08T04:06:18.904Z,2.53
2023-04-08T04:08:50.347Z,2.00
2023-04-08T04:11:19.030Z,2.35
2023-04-08T04:13:47.338Z,1.60
2023-04-08T04:16:15.738Z,1.50
2023-04-08T04:18:44.295Z,1.85
2023-04-08T04:21:13.474Z,2.10
2023-04-08T04:23:41.814Z,2.42
2023-04-08T04:26:12.707Z,1.58
2023-04-08T04:28:41.576Z,1.88
2023-04-08T04:31:09.941Z,1.40
2023-04-08T04:33:38.380Z,1.80
2023-04-08T04:36:06.699Z,2.33
2023-04-08T04:38:35.046Z,3.38
2023-04-08T04:41:03.356Z,2.10
2023-04-08T04:43:33.141Z,2.25
2023-04-08T04:46:02.466Z,2.53
2023-04-08T04:48:31.980Z,2.92
2023-04-08T04:51:03.176Z,3.20
2023-04-08T04:53:32.530Z,3.03
2023-04-08T04:56:02.137Z,2.75
2023-04-08T04:58:32.416Z,3.75
2023-04-08T05:01:00.922Z,3.50
2023-04-08T05:03:29.339Z,3.20
2023-04-08T05:05:57.684Z,3.55
2023-04-08T05:08:27.811Z,3.60
2023-04-08T05:10:56.612Z,3.40
2023-04-08T05:13:24.880Z,3.47
2023-04-08T05:15:54.650Z,3.15
2023-04-08T05:18:22.959Z,3.40
2023-04-08T05:20:51.662Z,2.97
2023-04-08T05:23:20.413Z,2.80
2023-04-08T05:25:48.771Z,3.00
2023-04-08T05:28:17.102Z,3.58
2023-04-08T05:30:50.187Z,3.72
2023-04-08T05:33:20.550Z,3.38
2023-04-08T05:35:48.854Z,2.70
2023-04-08T05:38:17.403Z,2.33
2023-04-08T05:40:45.818Z,2.10
2023-04-08T05:43:14.174Z,1.77
2023-04-08T05:45:42.539Z,2.42
2023-04-08T05:48:11.085Z,1.83
2023-04-08T05:50:40.950Z,2.13
2023-04-08T05:53:09.329Z,2.20
2023-04-08T05:55:37.696Z,3.10
2023-04-08T05:58:06.629Z,2.17
2023-04-08T06:00:35.148Z,2.38
2023-04-08T06:03:03.687Z,2.20
2023-04-08T06:05:33.494Z,2.00
2023-04-08T06:08:03.209Z,2.00
2023-04-08T06:10:31.713Z,2.28
2023-04-08T06:13:00.315Z,2.08
2023-04-08T06:15:29.081Z,1.50
2023-04-08T06:17:57.527Z,1.85
2023-04-08T06:20:26.481Z,2.10
2023-04-08T06:22:55.068Z,1.95
2023-04-08T06:25:24.824Z,1.92
2023-04-08T06:27:53.225Z,1.80
2023-04-08T06:30:21.972Z,1.80
2023-04-08T06:32:50.370Z,1.35
2023-04-08T06:35:19.254Z,1.70
2023-04-08T06:37:47.614Z,1.40
2023-04-08T06:40:16.344Z,1.75
2023-04-08T06:42:46.280Z,1.58
2023-04-08T06:45:15.470Z,2.10
2023-04-08T06:47:43.903Z,1.77
2023-04-08T06:50:12.611Z,1.80
2023-04-08T06:52:41.108Z,1.65
2023-04-08T06:55:10.623Z,1.70
2023-04-08T06:57:39.055Z,1.50
2023-04-08T07:00:11.707Z,1.90
2023-04-08T07:02:40.162Z,1.50
2023-04-08T07:05:09.649Z,1.90
2023-04-08T07:07:38.155Z,1.73
2023-04-08T07:10:10.818Z,1.98
2023-04-08T07:12:39.518Z,2.80
2023-04-08T07:15:11.415Z,1.73
2023-04-08T07:17:40.423Z,2.42
2023-04-08T07:20:10.707Z,2.38
2023-04-08T07:22:39.150Z,2.58
2023-04-08T07:25:08.776Z,2.55
2023-04-08T07:27:37.314Z,2.78
2023-04-08T07:30:09.292Z,2.53
2023-04-08T07:32:38.167Z,2.72
2023-04-08T07:35:07.872Z,3.08
2023-04-08T07:37:36.354Z,2.90
2023-04-08T07:40:05.190Z,2.65
2023-04-08T07:42:33.611Z,2.60
2023-04-08T07:45:02.001Z,3.25
2023-04-08T07:47:31.783Z,2.95
2023-04-08T07:50:00.126Z,2.97
2023-04-08T07:52:28.794Z,3.63
2023-04-08T07:54:57.167Z,2.95
2023-04-08T07:57:25.589Z,3.10
2023-04-08T07:59:54.374Z,3.47
2023-04-08T08:02:22.965Z,3.78
2023-04-08T08:04:53.119Z,5.45
2023-04-08T08:07:21.539Z,4.10
2023-04-08T08:09:50.191Z,3.38
2023-04-08T08:12:18.665Z,4.10
2023-04-08T08:14:47.101Z,5.32
2023-04-08T08:17:15.653Z,4.30
2023-04-08T08:19:44.069Z,4.68
2023-04-08T08:22:14.789Z,5.38
2023-04-08T08:24:43.718Z,5.45
2023-04-08T08:27:12.511Z,4.78
2023-04-08T08:29:40.980Z,5.60
2023-04-08T08:32:09.384Z,5.03
2023-04-08T08:34:38.258Z,5.45
2023-04-08T08:37:06.595Z,4.57
2023-04-08T08:39:36.492Z,4.53
2023-04-08T08:42:04.981Z,5.45
2023-04-08T08:44:33.423Z,4.82
2023-04-08T08:47:02.051Z,5.30
2023-04-08T08:49:30.588Z,4.50
2023-04-08T08:52:00.052Z,4.47
2023-04-08T08:54:28.761Z,4.75
2023-04-08T08:56:58.514Z,5.18
2023-04-08T08:59:26.924Z,4.90
2023-04-08T09:01:55.580Z,4.63
2023-04-08T09:04:24.399Z,4.78
2023-04-08T09:07:11.128Z,4.03
2023-04-08T09:09:50.615Z,6.00
2023-04-08T09:12:20.741Z,5.22
2023-04-08T09:14:49.429Z,5.95
2023-04-08T09:17:32.537Z,4.85
2023-04-08T09:20:11.924Z,4.80
2023-04-08T09:23:01.204Z,4.65
2023-04-08T09:25:32.197Z,3.85
2023-04-08T09:28:03.228Z,5.25
2023-04-08T09:30:34.174Z,8.00
2023-04-08T09:33:07.261Z,6.53
2023-04-08T09:35:36.559Z,5.22
2023-04-08T09:38:04.981Z,5.03
2023-04-08T09:40:37.528Z,5.78
2023-04-08T09:43:10.507Z,5.82
2023-04-08T09:45:42.858Z,5.65
2023-04-08T09:48:18.623Z,6.13
2023-04-08T09:50:53.847Z,5.97
2023-04-08T09:53:31.819Z,5.35
2023-04-08T09:56:01.874Z,6.30
2023-04-08T09:58:40.402Z,7.38
2023-04-08T10:01:13.661Z,5.10
2023-04-08T10:03:50.065Z,5.40
2023-04-08T10:06:19.599Z,5.47
2023-04-08T10:08:48.206Z,5.40
2023-04-08T10:11:17.017Z,5.85
2023-04-08T10:13:48.311Z,5.93
2023-04-08T10:16:27.165Z,6.20
2023-04-08T10:18:57.207Z,5.03
2023-04-08T10:21:40.309Z,5.18
2023-04-08T10:24:09.976Z,5.93
2023-04-08T10:26:41.404Z,5.18
2023-04-08T10:29:46.362Z,5.93
2023-04-08T10:32:30.698Z,5.60
2023-04-08T10:34:59.030Z,6.70
2023-04-08T10:37:27.380Z,7.65
2023-04-08T10:39:56.554Z,5.63
2023-04-08T10:42:30.299Z,7.03
2023-04-08T10:45:04.019Z,6.13
2023-04-08T10:47:32.385Z,7.03
2023-04-08T10:50:00.981Z,6.05
2023-04-08T10:52:29.385Z,6.85
2023-04-08T10:54:57.792Z,7.07
2023-04-08T10:57:27.066Z,7.20
2023-04-08T10:59:55.492Z,6.63
2023-04-08T11:02:34.857Z,8.20
2023-04-08T11:05:04.468Z,6.43
2023-04-08T11:07:33.034Z,7.82
2023-04-08T11:10:05.234Z,8.63
2023-04-08T11:12:34.086Z,8.77
2023-04-08T11:15:04.095Z,7.72
2023-04-08T11:17:36.394Z,8.02
2023-04-08T11:20:06.339Z,9.30
2023-04-08T11:22:35.928Z,8.80
2023-04-08T11:25:05.130Z,8.48
2023-04-08T11:27:33.726Z,8.65
2023-04-08T11:30:02.853Z,7.95
2023-04-08T11:32:31.688Z,9.30
2023-04-08T11:35:03.475Z,9.27
2023-04-08T11:37:39.887Z,9.82
2023-04-08T11:40:13.610Z,9.13
2023-04-08T11:42:42.036Z,8.00
2023-04-08T11:45:14.977Z,8.85
2023-04-08T11:47:44.255Z,7.93
2023-04-08T11:50:14.501Z,7.18
2023-04-08T11:52:47.095Z,7.82
2023-04-08T11:55:25.498Z,7.25
2023-04-08T11:57:54.456Z,7.38
2023-04-08T12:00:24.227Z,8.00
2023-04-08T12:02:53.741Z,8.35
2023-04-08T12:05:23.626Z,8.43
2023-04-08T12:07:52.066Z,8.45
2023-04-08T12:10:20.720Z,8.38
2023-04-08T12:12:49.166Z,7.72
2023-04-08T12:15:17.934Z,8.48
2023-04-08T12:17:46.439Z,7.95
2023-04-08T12:20:17.098Z,7.55
2023-04-08T12:22:46.956Z,7.50
2023-04-08T12:25:15.453Z,7.65
2023-04-08T12:27:43.907Z,8.10
2023-04-08T12:30:15.370Z,7.60
2023-04-08T12:32:46.127Z,7.97
2023-04-08T12:35:15.130Z,7.32
2023-04-08T12:37:43.531Z,8.38
2023-04-08T12:40:13.784Z,7.53
2023-04-08T12:42:42.766Z,9.48
2023-04-08T12:45:11.715Z,8.80
2023-04-08T12:47:40.108Z,8.13
2023-04-08T12:50:10.551Z,8.25
2023-04-08T12:52:39.074Z,8.77
2023-04-08T12:55:08.789Z,7.18
2023-04-08T12:57:38.622Z,7.07
2023-04-08T13:00:09.501Z,6.63
2023-04-08T13:02:37.996Z,6.30
2023-04-08T13:05:07.446Z,6.75
2023-04-08T13:07:35.776Z,6.65
2023-04-08T13:10:04.622Z,5.95
2023-04-08T13:12:33.249Z,6.43
2023-04-08T13:15:03.035Z,5.93
2023-04-08T13:17:31.453Z,6.15
2023-04-08T13:19:59.787Z,5.90
2023-04-08T13:22:28.166Z,6.40
2023-04-08T13:24:57.005Z,6.55
2023-04-08T13:27:25.406Z,5.53
2023-04-08T13:29:53.796Z,6.25
2023-04-08T13:32:23.566Z,5.60
2023-04-08T13:34:51.934Z,7.25
2023-04-08T13:37:20.316Z,6.97
2023-04-08T13:39:48.672Z,6.32
2023-04-08T13:42:17.078Z,5.30
2023-04-08T13:44:45.438Z,6.20
2023-04-08T13:47:13.854Z,5.95
2023-04-08T13:49:43.624Z,6.33
2023-04-08T13:52:12.025Z,5.75
2023-04-08T13:54:40.330Z,5.95
2023-04-08T13:57:08.813Z,4.88
2023-04-08T13:59:37.244Z,5.45
2023-04-08T14:02:05.950Z,4.68
2023-04-08T14:04:34.936Z,5.05
2023-04-08T14:07:04.733Z,5.22
2023-04-08T14:09:33.672Z,4.75
2023-04-08T14:12:02.070Z,4.53
2023-04-08T14:14:30.491Z,4.57
2023-04-08T14:16:59.033Z,4.07
2023-04-08T14:19:27.387Z,4.90
2023-04-08T14:21:55.746Z,4.72
2023-04-08T14:24:25.478Z,4.10
2023-04-08T14:26:53.885Z,4.03
2023-04-08T14:29:22.293Z,4.30
2023-04-08T14:31:50.915Z,3.80
2023-04-08T14:34:19.380Z,4.22
2023-04-08T14:36:48.184Z,3.03
2023-04-08T14:39:16.520Z,4.40
2023-04-08T14:41:47.748Z,3.58
2023-04-08T14:44:16.053Z,4.50
2023-04-08T14:46:44.570Z,4.15
2023-04-08T14:49:12.986Z,4.35
2023-04-08T14:51:41.545Z,3.95
2023-04-08T14:54:09.965Z,4.25
2023-04-08T14:56:38.475Z,3.88
2023-04-08T14:59:08.224Z,4.10
2023-04-08T15:01:36.718Z,4.32
2023-04-08T15:04:05.310Z,3.58
2023-04-08T15:06:33.777Z,5.28
2023-04-08T15:09:02.374Z,3.90
2023-04-08T15:11:30.878Z,3.88
2023-04-08T15:13:59.374Z,4.78
2023-04-08T15:16:29.258Z,3.88
2023-04-08T15:18:59.896Z,4.47
2023-04-08T15:21:28.342Z,5.50
2023-04-08T15:23:56.758Z,4.97
2023-04-08T15:26:25.524Z,4.55
2023-04-08T15:28:57.528Z,4.18
2023-04-08T15:31:25.982Z,4.10
2023-04-08T15:33:56.425Z,3.75
2023-04-08T15:36:24.833Z,4.10
2023-04-08T15:38:53.804Z,4.13
2023-04-08T15:41:22.853Z,4.57
2023-04-08T15:43:51.335Z,4.35
2023-04-08T15:46:20.536Z,4.85
2023-04-08T15:48:49.501Z,4.68
2023-04-08T15:51:20.445Z,4.72
2023-04-08T15:53:50.410Z,4.38
2023-04-08T15:56:19.740Z,4.10
2023-04-08T15:58:48.280Z,4.80
2023-04-08T16:01:16.966Z,4.40
2023-04-08T16:03:45.664Z,4.45
2023-04-08T16:06:14.071Z,4.78
2023-04-08T16:08:44.823Z,4.32
2023-04-08T16:11:13.228Z,4.20
2023-04-08T16:13:42.625Z,5.28
2023-04-08T16:16:12.411Z,4.38
2023-04-08T16:18:42.887Z,5.18
2023-04-08T16:21:11.436Z,4.57
2023-04-08T16:23:40.101Z,4.90
2023-04-08T16:26:10.049Z,5.15
2023-04-08T16:28:39.982Z,5.40
2023-04-08T16:31:08.459Z,5.38
2023-04-08T16:33:36.896Z,5.20
2023-04-08T16:36:05.798Z,5.50
2023-04-08T16:38:34.148Z,5.40
2023-04-08T16:41:04.518Z,5.35
2023-04-08T16:43:34.313Z,5.88
2023-04-08T16:46:12.399Z,6.50
2023-04-08T16:48:41.942Z,6.97
2023-04-08T16:51:10.544Z,7.47
2023-04-08T16:53:39.030Z,6.43
2023-04-08T16:56:15.903Z,6.88
2023-04-08T16:58:46.097Z,7.30
2023-04-08T17:01:15.147Z,7.13
2023-04-08T17:03:43.797Z,10.40
2023-04-08T17:06:14.141Z,8.77
2023-04-08T17:08:43.606Z,8.98
2023-04-08T17:11:14.548Z,10.10
2023-04-08T17:13:45.705Z,11.63
2023-04-08T17:16:15.916Z,10.07
2023-04-08T17:18:45.237Z,11.65
2023-04-08T17:21:14.087Z,12.88
2023-04-08T17:23:42.597Z,9.70
2023-04-08T17:26:12.858Z,10.10
2023-04-08T17:28:41.239Z,7.82
2023-04-08T17:31:11.704Z,8.32
2023-04-08T17:33:40.053Z,8.65
2023-04-08T17:36:09.091Z,9.18
2023-04-08T17:38:40.018Z,7.35
2023-04-08T17:41:10.093Z,8.77
2023-04-08T17:43:38.538Z,7.68
2023-04-08T17:46:06.975Z,10.93
2023-04-08T17:48:36.773Z,10.18
2023-04-08T17:51:07.524Z,13.07
2023-04-08T17:53:36.014Z,14.25
2023-04-08T17:56:05.867Z,12.57
2023-04-08T17:58:34.257Z,12.25
2023-04-08T18:01:02.832Z,11.07
2023-04-08T18:03:31.748Z,14.73
2023-04-08T18:06:02.078Z,10.50
2023-04-08T18:08:30.451Z,11.38
2023-04-08T18:10:58.825Z,10.50
2023-04-08T18:13:27.165Z,12.10
2023-04-08T18:15:55.537Z,11.40
2023-04-08T18:18:25.012Z,11.85
2023-04-08T18:20:53.533Z,8.45
2023-04-08T18:23:23.374Z,7.88
2023-04-08T18:25:51.795Z,9.75
2023-04-08T18:28:22.474Z,7.78
2023-04-08T18:30:53.184Z,8.20
2023-04-08T18:33:21.755Z,7.38
2023-04-08T18:35:50.117Z,7.57
2023-04-08T18:38:18.500Z,8.30
2023-04-08T18:40:48.220Z,6.70
2023-04-08T18:43:16.559Z,7.75
2023-04-08T18:45:44.896Z,6.90
2023-04-08T18:48:13.450Z,8.23
2023-04-08T18:50:41.777Z,8.73
2023-04-08T18:53:10.173Z,6.25
2023-04-08T18:55:39.075Z,7.43
2023-04-08T18:58:09.368Z,8.73
2023-04-08T19:00:41.212Z,7.78
2023-04-08T19:03:10.409Z,7.95
2023-04-08T19:05:39.005Z,7.57
2023-04-08T19:08:07.481Z,8.80
2023-04-08T19:10:36.377Z,7.95
2023-04-08T19:13:04.751Z,9.13
2023-04-08T19:15:34.693Z,8.35
2023-04-08T19:18:04.163Z,8.85
2023-04-08T19:20:32.899Z,7.68
2023-04-08T19:23:01.269Z,9.60
2023-04-08T19:25:29.642Z,9.05
2023-04-08T19:27:57.965Z,8.82
2023-04-08T19:30:26.359Z,8.57
2023-04-08T19:32:56.111Z,7.85
2023-04-08T19:35:25.315Z,8.35
2023-04-08T19:37:53.900Z,10.07
2023-04-08T19:40:22.519Z,7.82
2023-04-08T19:42:50.950Z,7.78
2023-04-08T19:45:19.606Z,9.55
2023-04-08T19:47:48.191Z,9.30
2023-04-08T19:50:17.967Z,9.02
2023-04-08T19:52:46.280Z,8.88
2023-04-08T19:55:15.022Z,8.38
2023-04-08T19:57:43.441Z,8.38
2023-04-08T20:00:14.249Z,8.32
2023-04-08T20:02:42.980Z,9.20
2023-04-08T20:05:14.936Z,13.15
2023-04-08T20:07:44.948Z,9.13
2023-04-08T20:10:13.754Z,11.27
2023-04-08T20:12:42.388Z,9.50
2023-04-08T20:15:23.793Z,10.77
2023-04-08T20:17:54.159Z,9.32
2023-04-08T20:20:23.189Z,8.82
2023-04-08T20:22:53.156Z,10.00
2023-04-08T20:25:21.715Z,14.85
2023-04-08T20:27:50.074Z,9.80
2023-04-08T20:30:18.568Z,9.13
2023-04-08T20:32:47.047Z,10.10
2023-04-08T20:35:15.791Z,9.57
2023-04-08T20:37:44.170Z,8.82
2023-04-08T20:40:16.448Z,8.63
2023-04-08T20:42:46.636Z,9.45
2023-04-08T20:45:14.985Z,9.43
2023-04-08T20:47:44.654Z,9.82
2023-04-08T20:50:13.542Z,8.90
2023-04-08T20:52:41.927Z,8.55
2023-04-08T20:55:11.277Z,9.63
2023-04-08T20:57:41.821Z,8.77
2023-04-08T21:00:13.698Z,9.88
2023-04-08T21:02:42.207Z,8.10
2023-04-08T21:05:11.269Z,10.77
2023-04-08T21:07:44.378Z,9.45
2023-04-08T21:10:14.259Z,8.93
2023-04-08T21:12:44.910Z,10.27
2023-04-08T21:15:13.685Z,9.43
2023-04-08T21:17:42.080Z,9.10
2023-04-08T21:20:12.429Z,9.15
2023-04-08T21:22:41.502Z,8.82
2023-04-08T21:25:10.565Z,8.52
2023-04-08T21:27:40.762Z,8.75
2023-04-08T21:30:11.534Z,8.23
2023-04-08T21:32:40.353Z,9.32
2023-04-08T21:35:09.890Z,8.55
2023-04-08T21:37:38.273Z,9.25
2023-04-08T21:40:09.027Z,8.48
2023-04-08T21:42:37.502Z,9.05
2023-04-08T21:45:07.720Z,9.13
2023-04-08T21:47:37.463Z,9.30
2023-04-08T21:50:07.890Z,8.50
2023-04-08T21:52:36.710Z,9.80
2023-04-08T21:55:05.834Z,9.50
2023-04-08T21:57:34.232Z,9.75
2023-04-08T22:00:04.431Z,8.63
2023-04-08T22:02:36.873Z,8.65
2023-04-08T22:05:07.955Z,8.73
2023-04-08T22:07:36.480Z,9.43
2023-04-08T22:10:05.155Z,10.02
2023-04-08T22:12:34.120Z,9.27
2023-04-08T22:15:03.004Z,9.65
2023-04-08T22:17:31.489Z,9.52
2023-04-08T22:19:59.898Z,8.77
2023-04-08T22:22:29.651Z,9.93
2023-04-08T22:24:57.989Z,10.02
2023-04-08T22:27:26.428Z,9.40
2023-04-08T22:29:54.740Z,10.27
2023-04-08T22:32:23.137Z,11.18
2023-04-08T22:34:51.833Z,13.05
2023-04-08T22:37:20.189Z,9.63
2023-04-08T22:39:49.905Z,11.05
2023-04-08T22:42:18.265Z,9.77
2023-04-08T22:44:46.715Z,10.40
2023-04-08T22:47:15.184Z,9.18
2023-04-08T22:49:43.557Z,9.20
2023-04-08T22:52:12.029Z,11.65
2023-04-08T22:54:40.355Z,10.75
2023-04-08T22:57:10.040Z,9.75
2023-04-08T22:59:38.597Z,9.35
2023-04-08T23:02:07.043Z,11.48
2023-04-08T23:04:35.448Z,10.75
2023-04-08T23:07:03.788Z,10.43
2023-04-08T23:09:32.103Z,9.98
2023-04-08T23:12:01.391Z,10.05
2023-04-08T23:14:31.245Z,10.85
2023-04-08T23:16:59.619Z,11.05
2023-04-08T23:19:28.034Z,12.63
2023-04-08T23:21:56.387Z,10.00
2023-04-08T23:24:24.770Z,10.45
2023-04-08T23:26:53.237Z,11.65
2023-04-08T23:29:21.901Z,11.25
2023-04-08T23:31:51.550Z,11.60
2023-04-08T23:34:20.131Z,11.48
2023-04-08T23:36:48.442Z,10.18
2023-04-08T23:39:16.786Z,10.35
2023-04-08T23:41:45.169Z,11.18
2023-04-08T23:44:13.544Z,11.00
2023-04-08T23:46:42.001Z,12.70
2023-04-08T23:49:11.771Z,11.57
2023-04-08T23:51:40.153Z,11.27
2023-04-08T23:54:08.526Z,12.15
2023-04-08T23:56:36.988Z,12.07
2023-04-08T23:59:05.369Z,9.38
